createdAt,value
2018-09-19T00:00:55.483Z,21.76
2018-09-19T00:05:58.941Z,21.74
2018-09-19T00:11:02.284Z,21.66
2018-09-19T00:16:05.632Z,21.55
2018-09-19T00:21:08.985Z,21.51
2018-09-19T00:26:12.367Z,21.49
2018-09-19T00:31:15.682Z,21.48
2018-09-19T00:36:19.014Z,21.43
2018-09-19T00:41:22.416Z,21.32
2018-09-19T00:46:25.854Z,21.22
2018-09-19T00:51:29.244Z,21.20
2018-09-19T00:56:32.582Z,21.23
2018-09-19T01:01:35.930Z,21.20
2018-09-19T01:06:39.298Z,21.19
2018-09-19T01:11:42.585Z,21.19
2018-09-19T01:16:45.886Z,21.15
2018-09-19T01:21:49.223Z,21.07
2018-09-19T01:26:52.536Z,21.02
2018-09-19T01:31:55.912Z,20.92
2018-09-19T01:36:59.225Z,20.77
2018-09-19T01:42:02.519Z,20.63
2018-09-19T01:47:05.818Z,20.56
2018-09-19T01:52:09.155Z,20.39
2018-09-19T01:57:12.456Z,20.28
2018-09-19T02:02:15.779Z,20.22
2018-09-19T02:07:19.152Z,20.19
2018-09-19T02:12:22.478Z,20.16
2018-09-19T02:17:25.812Z,20.10
2018-09-19T02:22:29.178Z,19.99
2018-09-19T02:27:32.487Z,19.96
2018-09-19T02:32:35.797Z,19.84
2018-09-19T02:37:39.086Z,19.73
2018-09-19T02:42:42.497Z,19.70
2018-09-19T02:47:45.806Z,19.58
2018-09-19T02:52:53.283Z,19.48
2018-09-19T02:57:56.600Z,19.39
2018-09-19T03:02:59.931Z,19.34
2018-09-19T03:08:03.266Z,19.32
2018-09-19T03:13:06.592Z,19.22
2018-09-19T03:18:09.959Z,19.22
2018-09-19T03:23:13.265Z,19.18
2018-09-19T03:28:16.571Z,19.09
2018-09-19T03:33:19.922Z,19.01
2018-09-19T03:38:23.276Z,18.95
2018-09-19T03:43:26.588Z,18.91
2018-09-19T03:48:29.913Z,18.89
2018-09-19T03:53:33.255Z,18.88
2018-09-19T03:58:36.592Z,18.85
2018-09-19T04:03:39.904Z,18.92
2018-09-19T04:08:43.306Z,18.83
2018-09-19T04:13:46.653Z,18.80
2018-09-19T04:18:49.956Z,18.75
2018-09-19T04:23:53.264Z,18.78
2018-09-19T04:28:56.595Z,18.77
2018-09-19T04:33:59.933Z,18.64
2018-09-19T04:39:03.829Z,18.65
2018-09-19T04:44:07.966Z,18.59
2018-09-19T04:49:11.295Z,18.56
2018-09-19T04:54:14.598Z,18.55
2018-09-19T04:59:17.928Z,18.61
2018-09-19T05:04:21.233Z,18.63
2018-09-19T05:09:24.560Z,18.63
2018-09-19T05:14:28.699Z,18.62
2018-09-19T05:19:32.046Z,18.60
2018-09-19T05:24:35.365Z,18.62
2018-09-19T05:29:38.662Z,18.72
2018-09-19T05:34:41.982Z,18.85
2018-09-19T05:39:45.303Z,18.94
2018-09-19T05:44:48.642Z,19.01
2018-09-19T05:49:51.944Z,19.10
2018-09-19T05:54:57.104Z,19.20
2018-09-19T06:00:00.415Z,19.38
2018-09-19T06:05:03.791Z,19.54
2018-09-19T06:10:07.605Z,19.64
2018-09-19T06:15:11.750Z,19.57
2018-09-19T06:20:15.086Z,19.51
2018-09-19T06:25:18.410Z,19.62
2018-09-19T06:30:21.712Z,19.71
2018-09-19T06:35:25.063Z,19.74
2018-09-19T06:40:28.417Z,19.75
2018-09-19T06:45:31.814Z,19.90
2018-09-19T06:50:35.067Z,20.10
2018-09-19T06:55:38.362Z,20.28
2018-09-19T07:00:41.693Z,20.35
2018-09-19T07:05:45.048Z,20.43
2018-09-19T07:10:48.349Z,20.63
2018-09-19T07:15:51.656Z,20.96
2018-09-19T07:20:54.978Z,21.30
2018-09-19T07:25:58.283Z,21.37
2018-09-19T07:31:01.652Z,21.40
2018-09-19T07:36:04.946Z,21.29
2018-09-19T07:41:08.255Z,21.19
2018-09-19T07:46:11.566Z,21.13
2018-09-19T07:51:14.861Z,21.08
2018-09-19T07:56:18.179Z,21.01
2018-09-19T08:01:21.558Z,20.95
2018-09-19T08:06:24.872Z,20.91
2018-09-19T08:11:28.199Z,20.92
2018-09-19T08:16:31.520Z,20.94
2018-09-19T08:21:34.852Z,20.89
2018-09-19T08:26:38.166Z,20.93
2018-09-19T08:31:41.482Z,21.22
2018-09-19T08:36:44.807Z,21.38
2018-09-19T08:41:48.145Z,21.62
2018-09-19T08:46:51.461Z,21.83
2018-09-19T08:51:54.770Z,22.03
2018-09-19T08:56:58.158Z,22.22
2018-09-19T09:02:01.470Z,22.31
2018-09-19T09:07:04.813Z,22.17
2018-09-19T09:12:08.218Z,22.20
2018-09-19T09:17:11.526Z,22.16
2018-09-19T09:22:14.869Z,22.36
2018-09-19T09:32:20.654Z,22.76
2018-09-19T09:37:23.991Z,22.92
2018-09-19T09:42:27.329Z,23.11
2018-09-19T09:47:30.670Z,23.36
2018-09-19T09:52:33.987Z,23.50
2018-09-19T09:57:37.305Z,23.62
2018-09-19T10:02:40.615Z,23.72
2018-09-19T10:07:43.939Z,23.94
2018-09-19T10:12:47.286Z,24.23
2018-09-19T10:17:50.630Z,24.42
2018-09-19T10:22:54.538Z,24.56
2018-09-19T10:27:57.853Z,24.69
2018-09-19T10:33:01.214Z,24.88
2018-09-19T10:38:04.612Z,25.08
2018-09-19T10:43:07.939Z,25.18
2018-09-19T10:48:11.303Z,25.25
2018-09-19T10:53:14.637Z,25.40
2018-09-19T10:58:17.959Z,25.62
2018-09-19T11:03:21.392Z,25.89
2018-09-19T11:08:24.714Z,26.29
2018-09-19T11:13:28.024Z,26.85
2018-09-19T11:18:32.463Z,28.31
2018-09-19T11:23:35.976Z,37.38
2018-09-19T11:28:39.350Z,41.41
2018-09-19T11:33:42.698Z,42.13
2018-09-19T11:38:46.002Z,41.89
2018-09-19T11:43:49.299Z,43.06
2018-09-19T11:48:52.674Z,42.69
2018-09-19T11:53:56.014Z,43.05
2018-09-19T11:58:59.356Z,45.36
2018-09-19T12:04:02.705Z,45.59
2018-09-19T12:09:09.093Z,44.91
2018-09-19T12:14:12.463Z,44.66
2018-09-19T12:19:15.818Z,44.57
2018-09-19T12:24:19.146Z,46.34
2018-09-19T12:29:22.509Z,45.42
2018-09-19T12:34:25.815Z,43.94
2018-09-19T12:39:29.271Z,43.27
2018-09-19T12:44:32.537Z,45.38
2018-09-19T12:49:35.883Z,46.64
2018-09-19T12:54:39.195Z,46.55
2018-09-19T12:59:42.540Z,45.33
2018-09-19T13:04:45.854Z,45.63
2018-09-19T13:09:49.183Z,46.01
2018-09-19T13:14:52.490Z,44.16
2018-09-19T13:19:55.832Z,41.65
2018-09-19T13:24:59.169Z,40.87
2018-09-19T13:30:02.476Z,39.98
2018-09-19T13:35:05.814Z,37.41
2018-09-19T13:40:09.172Z,36.43
2018-09-19T13:45:12.467Z,35.61
2018-09-19T13:50:54.170Z,34.33
2018-09-19T13:55:57.510Z,33.32
2018-09-19T14:01:07.496Z,32.94
2018-09-19T14:06:10.933Z,32.81
2018-09-19T14:11:14.344Z,32.86
2018-09-19T14:16:17.724Z,32.83
2018-09-19T14:21:21.065Z,32.30
2018-09-19T14:26:36.429Z,31.76
2018-09-19T14:31:39.776Z,31.27
2018-09-19T14:36:43.313Z,31.10
2018-09-19T14:41:46.710Z,30.94
2018-09-19T14:46:50.121Z,30.74
2018-09-19T14:51:53.422Z,30.58
2018-09-19T14:56:56.721Z,30.48
2018-09-19T15:02:00.342Z,30.44
2018-09-19T15:07:03.842Z,30.40
2018-09-19T15:12:07.941Z,30.33
2018-09-19T15:17:11.474Z,30.27
2018-09-19T15:22:15.176Z,30.22
2018-09-19T15:27:18.616Z,30.18
2018-09-19T15:32:22.180Z,30.09
2018-09-19T15:37:26.086Z,30.03
2018-09-19T15:42:29.569Z,29.93
2018-09-19T15:47:33.016Z,29.91
2018-09-19T15:52:36.404Z,29.81
2018-09-19T15:57:39.758Z,29.75
2018-09-19T16:02:43.087Z,29.72
2018-09-19T16:07:46.420Z,29.65
2018-09-19T16:12:49.847Z,29.57
2018-09-19T16:17:53.249Z,29.51
2018-09-19T16:22:57.693Z,29.46
2018-09-19T16:28:01.050Z,29.44
2018-09-19T16:33:04.395Z,29.41
2018-09-19T16:38:07.831Z,29.32
2018-09-19T16:43:11.307Z,29.16
2018-09-19T16:48:14.664Z,29.01
2018-09-19T16:53:18.000Z,28.77
2018-09-19T16:58:21.403Z,28.53
2018-09-19T17:03:24.759Z,28.26
2018-09-19T17:08:28.116Z,28.05
2018-09-19T17:13:31.675Z,27.82
2018-09-19T17:18:35.082Z,27.62
2018-09-19T17:23:39.462Z,27.49
2018-09-19T17:28:44.371Z,27.34
2018-09-19T17:33:47.979Z,27.22
2018-09-19T17:38:51.664Z,27.11
2018-09-19T17:43:55.124Z,27.01
2018-09-19T17:48:58.881Z,26.93
2018-09-19T17:54:02.795Z,26.84
2018-09-19T17:59:06.141Z,26.75
2018-09-19T18:04:09.687Z,26.69
2018-09-19T18:09:13.976Z,26.61
2018-09-19T18:14:18.268Z,26.49
2018-09-19T18:19:23.515Z,26.38
2018-09-19T18:24:27.503Z,26.25
2018-09-19T18:29:31.867Z,26.03
2018-09-19T18:34:36.203Z,25.88
2018-09-19T18:39:40.119Z,25.82
2018-09-19T18:44:43.687Z,25.72
2018-09-19T18:49:47.416Z,25.60
2018-09-19T18:54:51.295Z,25.50
2018-09-19T18:59:54.660Z,25.45
2018-09-19T19:04:58.148Z,25.46
2018-09-19T19:10:02.021Z,25.42
2018-09-19T19:15:05.469Z,25.41
2018-09-19T19:20:09.639Z,25.36
2018-09-19T19:25:13.412Z,25.30
2018-09-19T19:30:16.994Z,25.20
2018-09-19T19:35:20.292Z,25.13
2018-09-19T19:40:23.973Z,25.10
2018-09-19T19:45:27.319Z,25.06
2018-09-19T19:50:30.782Z,25.06
2018-09-19T19:55:34.186Z,25.01
2018-09-19T20:00:37.516Z,24.95
2018-09-19T20:05:40.864Z,24.92
2018-09-19T20:10:44.200Z,24.84
2018-09-19T20:15:47.483Z,24.75
2018-09-19T20:20:50.831Z,24.68
2018-09-19T20:25:54.238Z,24.60
2018-09-19T20:30:57.903Z,24.58
2018-09-19T20:36:01.295Z,24.58
2018-09-19T20:41:04.672Z,24.54
2018-09-19T20:46:08.219Z,24.42
2018-09-19T20:51:11.615Z,24.35
2018-09-19T20:56:14.921Z,24.29
2018-09-19T21:01:18.279Z,24.25
2018-09-19T21:06:21.627Z,24.21
2018-09-19T21:11:25.102Z,24.13
2018-09-19T21:16:28.572Z,24.11
2018-09-19T21:21:32.008Z,24.10
2018-09-19T21:26:35.402Z,24.05
2018-09-19T21:31:38.735Z,23.98
2018-09-19T21:36:42.037Z,23.95
2018-09-19T21:41:45.369Z,23.87
2018-09-19T21:46:48.779Z,23.81
2018-09-19T21:51:52.170Z,23.76
2018-09-19T21:56:55.543Z,23.76
2018-09-19T22:02:00.258Z,23.71
2018-09-19T22:07:03.581Z,23.67
2018-09-19T22:12:09.583Z,23.63
2018-09-19T22:17:13.007Z,23.61
2018-09-19T22:22:16.415Z,23.56
2018-09-19T22:27:19.749Z,23.53
2018-09-19T22:32:23.194Z,23.51
2018-09-19T22:37:26.629Z,23.50
2018-09-19T22:42:30.039Z,23.47
2018-09-19T22:47:33.388Z,23.42
2018-09-19T22:52:36.766Z,23.39
2018-09-19T22:57:40.078Z,23.37
2018-09-19T23:02:43.447Z,23.34
2018-09-19T23:07:46.743Z,23.31
2018-09-19T23:12:50.039Z,23.30
2018-09-19T23:17:53.362Z,23.28
2018-09-19T23:22:56.657Z,23.23
2018-09-19T23:27:59.959Z,23.14
2018-09-19T23:33:03.287Z,23.12
2018-09-19T23:38:06.591Z,23.09
2018-09-19T23:43:09.897Z,23.07
2018-09-19T23:48:13.202Z,23.03
2018-09-19T23:53:16.491Z,23.00
2018-09-19T23:58:19.783Z,22.95
